Sansui, China
Current Conditions -  °F | °C
As of 1:00 PM on Thursday 23 Oct 2014 (Local Time) from ZUGY Reporting Station
Light Rain Light Rain  
Wind Chill: 59°   Ceiling: Unl
Heat Index: 59°   Visibility: 4mi
Dew Point: 52°   Wind: 2mph
Humidity: 77%   Direction: NA
Pressure: 30.21"   Gusts: NA
Location:  26.97°N, 108.67°E
Report Text: ZUGY 230500Z VRB01MPS 6000 -RA SCT026 15/11 Q1023 NOSIG
Loading
Personal Weather Stations






























Interactive Weather Map
Tropical Storm Tracking
New forecast layout! Learn more

10-Day Weather Forecast

Advertisements
Track Severe Weather on mobile